KCAR 150421Z AUTO 19005KT 10SM BKN014 OVC028 23/21 A2980 RMK AO2 T02280206